createdAt,value
2023-12-19T00:00:01.718Z,60.50
2023-12-19T00:02:29.410Z,53.30
2023-12-19T00:04:57.258Z,58.70
2023-12-19T00:07:24.712Z,50.20
2023-12-19T00:09:52.341Z,44.60
2023-12-19T00:12:20.483Z,46.00
2023-12-19T00:14:48.112Z,51.50
2023-12-19T00:17:15.763Z,50.40
2023-12-19T00:19:43.475Z,45.70
2023-12-19T00:22:11.189Z,44.40
2023-12-19T00:24:38.860Z,38.90
2023-12-19T00:27:06.520Z,38.30
2023-12-19T00:29:34.091Z,40.20
2023-12-19T00:32:02.052Z,41.10
2023-12-19T00:34:29.692Z,42.20
2023-12-19T00:36:57.508Z,33.70
2023-12-19T00:39:25.244Z,37.70
2023-12-19T00:41:52.782Z,38.60
2023-12-19T00:44:20.362Z,35.40
2023-12-19T00:46:47.915Z,25.80
2023-12-19T00:49:15.652Z,23.00
2023-12-19T00:51:43.869Z,22.30
2023-12-19T00:54:11.512Z,22.80
2023-12-19T00:56:39.163Z,26.80
2023-12-19T00:59:06.935Z,36.10
2023-12-19T01:01:34.505Z,50.60
2023-12-19T01:04:02.206Z,44.50
2023-12-19T01:06:30.078Z,40.70
2023-12-19T01:08:57.789Z,50.30
2023-12-19T01:11:25.239Z,73.40
2023-12-19T01:13:52.889Z,45.50
2023-12-19T01:16:20.761Z,38.80
2023-12-19T01:18:48.690Z,34.90
2023-12-19T01:21:16.493Z,47.10
2023-12-19T01:23:44.175Z,60.40
2023-12-19T01:26:16.431Z,76.40
2023-12-19T01:28:48.092Z,53.40
2023-12-19T01:31:15.864Z,57.70
2023-12-19T01:33:43.691Z,61.90
2023-12-19T01:36:11.505Z,65.50
2023-12-19T01:38:39.237Z,74.10
2023-12-19T01:41:06.797Z,79.60
2023-12-19T01:43:34.453Z,70.90
2023-12-19T01:46:02.081Z,60.30
2023-12-19T01:48:30.054Z,56.90
2023-12-19T01:50:57.853Z,53.20
2023-12-19T01:53:25.416Z,55.20
2023-12-19T01:55:52.964Z,49.60
2023-12-19T01:58:20.523Z,39.80
2023-12-19T02:00:48.557Z,44.30
2023-12-19T02:03:16.283Z,41.30
2023-12-19T02:05:44.030Z,42.80
2023-12-19T02:08:11.794Z,53.70
2023-12-19T02:10:39.442Z,50.80
2023-12-19T02:13:07.049Z,49.70
2023-12-19T02:15:34.777Z,53.80
2023-12-19T02:18:02.485Z,66.70
2023-12-19T02:20:30.293Z,69.80
2023-12-19T02:22:57.859Z,59.90
2023-12-19T02:25:25.529Z,61.80
2023-12-19T02:27:53.075Z,58.80
2023-12-19T02:30:20.690Z,59.80
2023-12-19T02:32:48.305Z,59.50
2023-12-19T02:35:15.961Z,72.30
2023-12-19T02:37:43.622Z,60.50
2023-12-19T02:40:11.616Z,57.40
2023-12-19T02:42:39.172Z,59.40
2023-12-19T02:45:06.811Z,58.00
2023-12-19T02:47:34.390Z,47.70
2023-12-19T02:50:02.128Z,53.80
2023-12-19T02:52:29.683Z,53.90
2023-12-19T02:54:57.385Z,54.00
2023-12-19T02:57:24.923Z,48.70
2023-12-19T02:59:52.665Z,60.50
2023-12-19T03:02:20.230Z,42.30
2023-12-19T03:04:47.906Z,45.40
2023-12-19T03:07:15.558Z,45.40
2023-12-19T03:09:43.254Z,44.40
2023-12-19T03:12:10.868Z,38.40
2023-12-19T03:14:38.445Z,36.70
2023-12-19T03:17:06.007Z,35.50
2023-12-19T03:19:34.067Z,29.40
2023-12-19T03:22:02.232Z,39.40
2023-12-19T03:24:30.049Z,43.70
2023-12-19T03:26:57.864Z,43.30
2023-12-19T03:29:25.434Z,42.40
2023-12-19T03:31:53.087Z,55.70
2023-12-19T03:34:20.773Z,48.70
2023-12-19T03:36:48.527Z,44.90
2023-12-19T03:39:16.202Z,45.00
2023-12-19T03:42:09.747Z,40.00
2023-12-19T03:44:31.360Z,40.70
2023-12-19T03:46:59.037Z,46.80
2023-12-19T03:49:26.763Z,39.70
2023-12-19T03:51:54.604Z,32.60
2023-12-19T03:54:22.246Z,33.70
2023-12-19T03:56:49.871Z,36.50
2023-12-19T03:59:17.429Z,29.60
2023-12-19T04:01:45.121Z,33.90
2023-12-19T04:06:40.328Z,18.10
2023-12-19T04:09:07.971Z,20.50
2023-12-19T04:11:35.526Z,19.60
2023-12-19T04:14:03.094Z,20.10
2023-12-19T04:16:30.746Z,23.00
2023-12-19T04:18:58.415Z,24.20
2023-12-19T04:21:25.988Z,24.40
2023-12-19T04:23:54.035Z,26.20
2023-12-19T04:26:21.703Z,23.00
2023-12-19T04:28:49.364Z,22.70
2023-12-19T04:31:17.080Z,23.40
2023-12-19T04:33:45.014Z,23.00
2023-12-19T04:36:12.772Z,20.30
2023-12-19T04:38:40.416Z,19.30
2023-12-19T04:41:07.977Z,23.20
2023-12-19T04:43:35.940Z,19.40
2023-12-19T04:46:03.590Z,22.10
2023-12-19T04:48:31.240Z,24.70
2023-12-19T04:50:59.035Z,24.80
2023-12-19T04:53:26.696Z,22.10
2023-12-19T04:55:54.353Z,23.10
2023-12-19T04:58:22.012Z,26.60
2023-12-19T05:00:49.810Z,24.80
2023-12-19T05:03:17.485Z,24.20
2023-12-19T05:05:45.449Z,20.30
2023-12-19T05:08:13.083Z,17.90
2023-12-19T05:10:40.627Z,20.60
2023-12-19T05:13:08.340Z,23.30
2023-12-19T05:15:36.076Z,25.60
2023-12-19T05:18:03.786Z,22.30
2023-12-19T05:20:31.642Z,21.10
2023-12-19T05:22:59.234Z,20.70
2023-12-19T05:25:26.903Z,18.40
2023-12-19T05:27:55.072Z,17.80
2023-12-19T05:30:22.951Z,21.40
2023-12-19T05:32:50.720Z,17.80
2023-12-19T05:35:18.368Z,23.30
2023-12-19T05:37:45.933Z,20.10
2023-12-19T05:40:13.479Z,20.90
2023-12-19T05:42:41.226Z,15.20
2023-12-19T05:45:09.214Z,39.40
2023-12-19T05:47:36.885Z,23.70
2023-12-19T05:50:04.550Z,21.50
2023-12-19T05:52:34.315Z,21.20
2023-12-19T05:55:02.468Z,57.70
2023-12-19T05:57:30.212Z,169.50
2023-12-19T05:59:57.949Z,229.90
2023-12-19T06:02:25.518Z,111.60
2023-12-19T06:04:53.168Z,86.40
2023-12-19T06:07:21.042Z,129.00
2023-12-19T06:09:48.640Z,114.10
2023-12-19T06:12:16.259Z,56.70
2023-12-19T06:14:43.914Z,56.70
2023-12-19T06:17:11.579Z,59.50
2023-12-19T06:19:39.327Z,58.90
2023-12-19T06:22:07.032Z,66.30
2023-12-19T06:24:34.771Z,63.60
2023-12-19T06:27:02.451Z,91.60
2023-12-19T06:29:29.987Z,80.80
2023-12-19T06:31:57.759Z,56.00
2023-12-19T06:34:25.725Z,33.10
2023-12-19T06:36:53.504Z,19.70
2023-12-19T06:39:21.158Z,20.30
2023-12-19T06:41:48.697Z,21.00
2023-12-19T06:44:16.248Z,15.70
2023-12-19T06:46:44.231Z,14.60
2023-12-19T06:49:12.022Z,13.30
2023-12-19T06:51:39.770Z,11.80
2023-12-19T06:54:07.306Z,15.90
2023-12-19T06:56:34.930Z,14.20
2023-12-19T06:59:02.534Z,14.50
2023-12-19T07:01:30.033Z,15.20
2023-12-19T07:03:57.850Z,14.40
2023-12-19T07:06:25.532Z,14.20
2023-12-19T07:08:53.633Z,18.50
2023-12-19T07:11:21.658Z,17.40
2023-12-19T07:13:49.325Z,15.40
2023-12-19T07:16:16.879Z,14.50
2023-12-19T07:18:44.554Z,23.60
2023-12-19T07:21:12.297Z,26.10
2023-12-19T07:23:39.794Z,22.30
2023-12-19T07:26:07.314Z,25.80
2023-12-19T07:28:34.869Z,20.90
2023-12-19T07:31:02.533Z,17.70
2023-12-19T07:33:30.429Z,18.60
2023-12-19T07:35:58.176Z,15.00
2023-12-19T07:38:25.835Z,17.40
2023-12-19T07:40:53.386Z,16.00
2023-12-19T07:43:20.949Z,16.40
2023-12-19T07:45:48.558Z,15.80
2023-12-19T07:48:16.343Z,15.30
2023-12-19T07:50:44.040Z,17.10
2023-12-19T07:53:11.697Z,12.60
2023-12-19T07:55:39.255Z,12.50
2023-12-19T07:58:07.031Z,11.90
2023-12-19T08:00:34.645Z,13.80
2023-12-19T08:03:02.472Z,13.00
2023-12-19T08:05:30.121Z,12.80
2023-12-19T08:07:57.665Z,16.80
2023-12-19T08:10:25.394Z,14.90
2023-12-19T08:12:53.425Z,12.60
2023-12-19T08:15:21.061Z,12.80
2023-12-19T08:17:48.682Z,25.10
2023-12-19T08:20:18.346Z,23.60
2023-12-19T08:22:46.296Z,18.00
2023-12-19T08:25:13.956Z,14.20
2023-12-19T08:27:41.666Z,14.00
2023-12-19T08:30:09.409Z,14.40
2023-12-19T08:32:37.569Z,13.70
2023-12-19T08:35:05.431Z,10.10
2023-12-19T08:37:33.285Z,9.90
2023-12-19T08:40:01.050Z,11.20
2023-12-19T08:42:28.826Z,10.30
2023-12-19T08:44:56.471Z,11.50
2023-12-19T08:47:24.046Z,8.20
2023-12-19T08:49:51.731Z,10.40
2023-12-19T08:52:19.450Z,10.10
2023-12-19T08:54:47.446Z,11.10
2023-12-19T08:57:14.985Z,13.20
2023-12-19T08:59:42.642Z,14.50
2023-12-19T09:02:10.621Z,15.70
2023-12-19T09:04:38.398Z,12.00
2023-12-19T09:07:06.153Z,10.00
2023-12-19T09:09:33.731Z,12.50
2023-12-19T09:12:01.371Z,12.00
2023-12-19T09:14:28.911Z,13.70
2023-12-19T09:16:56.820Z,10.70
2023-12-19T09:19:24.718Z,13.60
2023-12-19T09:21:52.559Z,11.30
2023-12-19T09:24:20.262Z,11.60
2023-12-19T09:26:48.044Z,10.00
2023-12-19T09:29:15.500Z,13.10
2023-12-19T09:31:43.223Z,13.40
2023-12-19T09:34:14.439Z,15.60
2023-12-19T09:36:50.880Z,15.70
2023-12-19T09:39:25.745Z,19.50
2023-12-19T09:41:53.464Z,14.40
2023-12-19T09:44:25.817Z,13.10
2023-12-19T09:46:54.425Z,13.50
2023-12-19T09:49:22.279Z,14.10
2023-12-19T09:51:50.074Z,21.00
2023-12-19T09:54:17.916Z,20.20
2023-12-19T09:56:46.795Z,17.90
2023-12-19T09:59:14.483Z,15.20
2023-12-19T10:01:42.246Z,11.60
2023-12-19T10:04:09.983Z,13.00
2023-12-19T10:06:46.855Z,14.20
2023-12-19T10:09:21.216Z,14.70
2023-12-19T10:11:48.956Z,15.00
2023-12-19T10:14:16.838Z,18.70
2023-12-19T10:16:44.472Z,16.40
2023-12-19T10:19:12.299Z,16.00
2023-12-19T10:21:40.019Z,15.70
2023-12-19T10:24:07.768Z,13.60
2023-12-19T10:26:35.326Z,12.20
2023-12-19T10:29:02.882Z,14.90
2023-12-19T10:31:30.316Z,14.10
2023-12-19T10:33:58.309Z,19.80
2023-12-19T10:36:26.200Z,17.90
2023-12-19T10:38:54.255Z,28.60
2023-12-19T10:41:21.805Z,26.40
2023-12-19T10:43:51.048Z,23.80
2023-12-19T10:46:18.963Z,17.10
2023-12-19T10:48:46.671Z,20.00
2023-12-19T10:51:14.340Z,20.60
2023-12-19T10:53:42.052Z,23.10
2023-12-19T10:56:09.720Z,24.70
2023-12-19T10:58:37.280Z,21.50
2023-12-19T11:01:05.238Z,21.90
2023-12-19T11:03:33.124Z,18.20
2023-12-19T11:06:00.796Z,23.80
2023-12-19T11:08:28.441Z,17.80
2023-12-19T11:10:56.099Z,18.50
2023-12-19T11:13:23.751Z,20.60
2023-12-19T11:15:51.329Z,15.40
2023-12-19T11:18:19.088Z,14.40
2023-12-19T11:20:46.825Z,14.80
2023-12-19T11:23:14.508Z,10.20
2023-12-19T11:25:42.215Z,13.00
2023-12-19T11:28:09.903Z,13.40
2023-12-19T11:30:38.106Z,12.30
2023-12-19T11:33:06.296Z,17.40
2023-12-19T11:35:34.365Z,11.90
2023-12-19T11:38:02.012Z,11.90
2023-12-19T11:40:29.975Z,10.10
2023-12-19T11:42:57.567Z,24.80
2023-12-19T11:45:25.206Z,12.30
2023-12-19T11:47:52.820Z,10.90
2023-12-19T11:50:20.652Z,10.80
2023-12-19T11:52:48.185Z,30.20
2023-12-19T11:55:15.808Z,12.80
2023-12-19T11:57:50.418Z,10.20
2023-12-19T12:00:25.186Z,11.00
2023-12-19T12:02:52.751Z,10.40
2023-12-19T12:05:20.452Z,10.70
2023-12-19T12:07:48.232Z,9.80
2023-12-19T12:10:15.892Z,11.70
2023-12-19T12:12:43.613Z,10.30
2023-12-19T12:15:11.157Z,8.80
2023-12-19T12:17:38.771Z,14.90
2023-12-19T12:20:06.501Z,15.10
2023-12-19T12:22:34.264Z,12.10
2023-12-19T12:25:01.849Z,9.10
2023-12-19T12:27:29.582Z,8.40
2023-12-19T12:29:57.126Z,15.20
2023-12-19T12:32:24.805Z,12.10
2023-12-19T12:34:52.373Z,10.70
2023-12-19T12:37:20.021Z,9.80
2023-12-19T12:39:47.576Z,7.40
2023-12-19T12:42:15.122Z,9.20
2023-12-19T12:44:42.688Z,8.50
2023-12-19T12:47:10.243Z,7.10
2023-12-19T12:49:37.883Z,29.40
2023-12-19T12:52:05.632Z,27.30
2023-12-19T12:54:33.333Z,80.80
2023-12-19T12:57:01.001Z,30.60
2023-12-19T12:59:28.690Z,40.10
2023-12-19T13:01:56.492Z,22.70
2023-12-19T13:04:24.282Z,13.80
2023-12-19T13:06:52.023Z,17.10
2023-12-19T13:09:19.707Z,15.20
2023-12-19T13:11:47.263Z,12.50
2023-12-19T13:14:14.814Z,12.10
2023-12-19T13:16:42.377Z,28.90
2023-12-19T13:19:10.303Z,20.70
2023-12-19T13:21:37.865Z,62.30
2023-12-19T13:24:05.980Z,14.90
2023-12-19T13:26:33.543Z,19.20
2023-12-19T13:29:01.095Z,17.40
2023-12-19T13:31:28.892Z,20.40
2023-12-19T13:33:56.836Z,16.70
2023-12-19T13:36:24.494Z,15.30
2023-12-19T13:38:52.155Z,13.70
2023-12-19T13:41:19.715Z,82.50
2023-12-19T13:43:47.390Z,23.70
2023-12-19T13:46:15.517Z,28.60
2023-12-19T13:48:44.811Z,20.70
2023-12-19T13:51:13.019Z,35.20
2023-12-19T13:53:40.575Z,42.60
2023-12-19T13:56:08.147Z,33.40
2023-12-19T13:58:35.703Z,42.10
2023-12-19T14:01:03.612Z,51.70
2023-12-19T14:03:31.328Z,39.30
2023-12-19T14:05:59.709Z,38.70
2023-12-19T14:08:27.780Z,35.10
2023-12-19T14:10:55.644Z,17.50
2023-12-19T14:13:23.233Z,16.80
2023-12-19T14:15:50.772Z,21.10
2023-12-19T14:18:18.538Z,19.40
2023-12-19T14:20:46.175Z,14.10
2023-12-19T14:23:13.744Z,14.60
2023-12-19T14:25:41.401Z,16.60
2023-12-19T14:28:08.987Z,14.90
2023-12-19T14:30:36.719Z,24.70
2023-12-19T14:33:04.417Z,21.30
2023-12-19T14:35:31.946Z,17.00
2023-12-19T14:37:59.620Z,12.00
2023-12-19T14:40:27.164Z,13.50
2023-12-19T14:42:54.885Z,11.80
2023-12-19T14:45:22.689Z,15.40
2023-12-19T14:47:51.792Z,17.30
2023-12-19T14:50:19.640Z,15.90
2023-12-19T14:52:47.419Z,21.40
2023-12-19T14:55:15.072Z,15.70
2023-12-19T14:57:43.240Z,14.30
2023-12-19T15:00:11.042Z,16.10
2023-12-19T15:02:38.670Z,14.60
2023-12-19T15:05:06.313Z,19.00
2023-12-19T15:07:34.038Z,17.80
2023-12-19T15:10:02.009Z,18.80
2023-12-19T15:12:29.873Z,11.60
2023-12-19T15:14:57.515Z,15.50
2023-12-19T15:17:25.175Z,13.50
2023-12-19T15:19:52.789Z,13.10
2023-12-19T15:22:20.624Z,12.60
2023-12-19T15:24:48.181Z,14.60
2023-12-19T15:27:15.909Z,11.50
2023-12-19T15:29:43.772Z,11.00
2023-12-19T15:32:11.437Z,12.20
2023-12-19T15:34:39.080Z,15.10
2023-12-19T15:37:07.030Z,103.10
2023-12-19T15:39:34.767Z,66.40
2023-12-19T15:42:02.382Z,62.60
2023-12-19T15:44:29.942Z,27.00
2023-12-19T15:46:57.502Z,31.70
2023-12-19T15:49:25.507Z,46.90
2023-12-19T15:51:53.299Z,52.60
2023-12-19T15:54:21.093Z,79.00
2023-12-19T15:56:48.648Z,42.80
2023-12-19T15:59:16.324Z,72.70
2023-12-19T16:01:44.045Z,84.00
2023-12-19T16:04:14.728Z,77.90
2023-12-19T16:06:42.440Z,64.10
2023-12-19T16:09:10.256Z,48.70
2023-12-19T16:11:37.596Z,25.10
2023-12-19T16:14:05.149Z,16.50
2023-12-19T16:16:32.818Z,11.40
2023-12-19T16:19:00.824Z,13.40
2023-12-19T16:21:28.654Z,15.00
2023-12-19T16:24:01.767Z,15.70
2023-12-19T16:26:32.749Z,12.30
2023-12-19T16:29:00.733Z,15.10
2023-12-19T16:31:29.023Z,13.90
2023-12-19T16:33:57.035Z,15.90
2023-12-19T16:36:25.176Z,12.00
2023-12-19T16:38:53.327Z,16.60
2023-12-19T16:41:21.101Z,13.80
2023-12-19T16:43:48.965Z,17.50
2023-12-19T16:46:16.585Z,15.10
2023-12-19T16:48:44.723Z,24.80
2023-12-19T16:51:12.842Z,21.30
2023-12-19T16:53:40.639Z,21.10
2023-12-19T16:56:08.194Z,20.00
2023-12-19T16:58:42.594Z,19.30
2023-12-19T17:01:11.900Z,20.40
2023-12-19T17:03:39.590Z,15.80
2023-12-19T17:06:07.360Z,15.60
2023-12-19T17:08:35.002Z,17.60
2023-12-19T17:11:02.669Z,14.50
2023-12-19T17:13:30.227Z,15.20
2023-12-19T17:15:57.916Z,15.40
2023-12-19T17:18:25.574Z,15.30
2023-12-19T17:20:53.638Z,16.50
2023-12-19T17:23:22.847Z,17.70
2023-12-19T17:25:51.596Z,13.90
2023-12-19T17:28:19.189Z,15.80
2023-12-19T17:30:46.982Z,14.60
2023-12-19T17:33:14.727Z,14.80
2023-12-19T17:35:42.235Z,20.80
2023-12-19T17:38:09.802Z,17.10
2023-12-19T17:40:37.352Z,21.50
2023-12-19T17:43:04.964Z,33.40
2023-12-19T17:45:32.640Z,42.40
2023-12-19T17:48:00.392Z,31.90
2023-12-19T17:50:28.153Z,25.50
2023-12-19T17:52:55.868Z,79.70
2023-12-19T17:55:23.564Z,243.80
2023-12-19T17:57:51.245Z,51.20
2023-12-19T18:00:19.262Z,23.50
2023-12-19T18:02:47.159Z,20.90
2023-12-19T18:05:15.163Z,17.50
2023-12-19T18:07:42.862Z,25.90
2023-12-19T18:10:10.458Z,18.70
2023-12-19T18:12:38.335Z,22.60
2023-12-19T18:15:06.058Z,18.20
2023-12-19T18:17:33.792Z,18.50
2023-12-19T18:20:01.639Z,21.00
2023-12-19T18:22:29.518Z,18.50
2023-12-19T18:24:57.345Z,17.90
2023-12-19T18:27:24.968Z,17.00
2023-12-19T18:29:52.423Z,20.30
2023-12-19T18:32:19.985Z,32.70
2023-12-19T18:34:47.619Z,20.30
2023-12-19T18:37:15.395Z,25.50
2023-12-19T18:39:43.205Z,21.30
2023-12-19T18:42:10.847Z,20.80
2023-12-19T18:44:38.500Z,23.60
2023-12-19T18:47:06.239Z,112.30
2023-12-19T18:49:34.004Z,28.40
2023-12-19T18:52:01.772Z,107.80
2023-12-19T18:54:29.562Z,73.00
2023-12-19T18:56:57.107Z,44.00
2023-12-19T18:59:24.777Z,26.60
2023-12-19T19:01:52.468Z,23.80
2023-12-19T19:04:20.428Z,28.00
2023-12-19T19:06:48.257Z,17.40
2023-12-19T19:09:15.930Z,28.20
2023-12-19T19:11:43.387Z,58.00
2023-12-19T19:14:10.983Z,63.10
2023-12-19T19:16:38.617Z,186.00
2023-12-19T19:19:06.389Z,130.50
2023-12-19T19:21:34.008Z,96.90
2023-12-19T19:24:01.812Z,66.20
2023-12-19T19:26:29.872Z,53.10
2023-12-19T19:28:57.577Z,36.10
2023-12-19T19:31:25.430Z,25.30
2023-12-19T19:33:53.448Z,28.80
2023-12-19T19:36:21.343Z,70.30
2023-12-19T19:38:48.998Z,122.20
2023-12-19T19:41:16.648Z,106.30
2023-12-19T19:43:44.209Z,56.60
2023-12-19T19:46:12.216Z,39.40
2023-12-19T19:48:39.984Z,69.30
2023-12-19T19:51:07.702Z,32.40
2023-12-19T19:53:35.263Z,32.60
2023-12-19T19:56:02.926Z,22.70
2023-12-19T19:58:30.480Z,24.60
2023-12-19T20:00:58.121Z,16.00
2023-12-19T20:03:25.911Z,88.90
2023-12-19T20:05:53.515Z,171.90
2023-12-19T20:08:21.644Z,160.30
2023-12-19T20:10:49.201Z,210.30
2023-12-19T20:13:16.813Z,65.20
2023-12-19T20:15:44.451Z,56.60
2023-12-19T20:18:12.371Z,38.60
2023-12-19T20:20:40.146Z,28.80
2023-12-19T20:23:07.726Z,20.00
2023-12-19T20:25:35.268Z,18.80
2023-12-19T20:28:02.971Z,25.40
2023-12-19T20:30:30.618Z,17.00
2023-12-19T20:32:58.485Z,22.80
2023-12-19T20:35:26.251Z,21.10
2023-12-19T20:37:54.087Z,14.00
2023-12-19T20:40:21.692Z,14.00
2023-12-19T20:42:49.841Z,12.50
2023-12-19T20:45:17.582Z,14.00
2023-12-19T20:47:45.613Z,14.90
2023-12-19T20:50:13.508Z,34.80
2023-12-19T20:52:50.376Z,15.30
2023-12-19T20:55:25.324Z,17.90
2023-12-19T20:57:53.421Z,21.30
2023-12-19T21:00:23.531Z,22.60
2023-12-19T21:02:52.616Z,29.10
2023-12-19T21:05:20.247Z,26.70
2023-12-19T21:07:48.240Z,27.50
2023-12-19T21:10:15.983Z,26.70
2023-12-19T21:12:44.040Z,18.90
2023-12-19T21:15:11.839Z,24.30
2023-12-19T21:17:39.426Z,16.70
2023-12-19T21:20:07.289Z,16.50
2023-12-19T21:22:35.148Z,18.70
2023-12-19T21:25:02.776Z,18.00
2023-12-19T21:27:30.555Z,16.10
2023-12-19T21:29:58.230Z,16.50
2023-12-19T21:32:25.832Z,16.20
2023-12-19T21:34:53.609Z,18.80
2023-12-19T21:37:21.392Z,18.70
2023-12-19T21:39:49.212Z,19.30
2023-12-19T21:42:16.829Z,23.20
2023-12-19T21:44:44.805Z,22.90
2023-12-19T21:47:12.478Z,24.20
2023-12-19T21:49:40.128Z,24.10
2023-12-19T21:52:07.833Z,19.30
2023-12-19T21:54:35.652Z,18.70
2023-12-19T21:57:03.328Z,17.50
2023-12-19T21:59:30.976Z,16.30
2023-12-19T22:01:58.845Z,20.00
2023-12-19T22:04:27.011Z,16.00
2023-12-19T22:06:55.161Z,17.10
2023-12-19T22:09:22.948Z,16.70
2023-12-19T22:11:50.631Z,15.40
2023-12-19T22:14:18.276Z,15.80
2023-12-19T22:16:45.928Z,16.00
2023-12-19T22:19:13.550Z,16.40
2023-12-19T22:21:41.032Z,14.60
2023-12-19T22:24:08.812Z,14.40
2023-12-19T22:26:36.494Z,14.00
2023-12-19T22:29:04.137Z,17.20
2023-12-19T22:31:32.089Z,13.90
2023-12-19T22:33:59.800Z,15.10
2023-12-19T22:36:27.525Z,17.00
2023-12-19T22:38:55.093Z,14.70
2023-12-19T22:41:22.745Z,17.00
2023-12-19T22:43:50.308Z,17.40
2023-12-19T22:46:17.890Z,15.30
2023-12-19T22:48:45.753Z,15.50
2023-12-19T22:51:13.612Z,16.90
2023-12-19T22:53:41.177Z,16.50
2023-12-19T22:56:08.812Z,13.20
2023-12-19T22:58:36.520Z,17.30
2023-12-19T23:01:04.434Z,13.10
2023-12-19T23:03:32.108Z,12.60
2023-12-19T23:05:59.788Z,15.10
2023-12-19T23:08:27.533Z,14.40
2023-12-19T23:10:55.090Z,14.30
2023-12-19T23:13:23.118Z,13.80
2023-12-19T23:15:51.076Z,13.20
2023-12-19T23:18:19.046Z,14.30
2023-12-19T23:20:46.881Z,12.50
2023-12-19T23:23:14.643Z,14.20
2023-12-19T23:25:42.185Z,14.30
2023-12-19T23:28:09.871Z,12.50
2023-12-19T23:30:37.476Z,13.60
2023-12-19T23:33:05.594Z,15.50
2023-12-19T23:35:33.139Z,11.30
2023-12-19T23:38:00.799Z,12.40
2023-12-19T23:40:28.361Z,14.00
2023-12-19T23:42:56.042Z,13.90
2023-12-19T23:45:23.684Z,15.60
2023-12-19T23:47:51.278Z,13.20
2023-12-19T23:50:19.018Z,14.80
2023-12-19T23:52:46.966Z,12.40
2023-12-19T23:55:14.763Z,16.90
2023-12-19T23:57:42.904Z,14.20
